Time;durP1;ratioP1;P1;durP2;ratioP2;P2;SDS_P1;SDS_P2;PMS_P1;PMS_P2;Temp;Humidity;BMP_temperature;BMP_pressure;BME280_temperature;BME280_humidity;BME280_pressure;Samples;Min_cycle;Max_cycle;Signal;HPM_P1;HPM_P2
2022/08/14 00:00:43;;;;;;;1.33;1.30;;;29.10;27.80;;;;;;5113834;27;45129;-71
2022/08/14 00:03:18;;;;;;;1.75;1.00;;;29.10;27.70;;;;;;5114007;27;45336;-70
2022/08/14 00:05:45;;;;;;;1.25;1.20;;;29.10;27.80;;;;;;5113995;27;45320;-71
2022/08/14 00:08:12;;;;;;;1.02;1.02;;;29.10;27.80;;;;;;5113677;27;45475;-71
2022/08/14 00:10:38;;;;;;;1.45;1.40;;;29.10;27.80;;;;;;5113576;27;45248;-71
2022/08/14 00:13:05;;;;;;;1.27;1.17;;;29.00;27.80;;;;;;5113799;27;45269;-71
2022/08/14 00:15:35;;;;;;;1.40;1.30;;;29.00;27.80;;;;;;5113870;27;45395;-71
2022/08/14 00:18:02;;;;;;;1.98;1.25;;;29.00;27.80;;;;;;5113576;27;45245;-70
2022/08/14 00:20:31;;;;;;;1.42;1.33;;;29.00;28.40;;;;;;5113569;27;45252;-71
2022/08/14 00:22:58;;;;;;;1.70;1.17;;;29.00;27.90;;;;;;5113593;27;44705;-71
2022/08/14 00:25:25;;;;;;;1.52;1.42;;;29.00;27.90;;;;;;5113685;27;45259;-71
2022/08/14 00:27:52;;;;;;;1.63;1.15;;;28.90;27.90;;;;;;5113088;27;45329;-71
2022/08/14 00:30:18;;;;;;;1.55;1.23;;;28.90;27.90;;;;;;5123482;27;45228;-70
2022/08/14 00:32:47;;;;;;;1.40;1.05;;;28.90;27.90;;;;;;5134221;27;45229;-70
2022/08/14 00:35:13;;;;;;;1.55;1.13;;;28.90;28.00;;;;;;5134277;27;45233;-70
2022/08/14 00:37:40;;;;;;;1.45;1.30;;;28.90;28.00;;;;;;5133637;27;45345;-71
2022/08/14 00:40:09;;;;;;;1.45;1.35;;;28.90;27.90;;;;;;5133941;27;45353;-70
2022/08/14 00:42:35;;;;;;;1.30;1.20;;;28.80;28.00;;;;;;5134070;27;45228;-71
2022/08/14 00:45:02;;;;;;;1.35;1.25;;;28.80;28.00;;;;;;5134318;27;45114;-71
2022/08/14 00:47:29;;;;;;;1.42;1.20;;;28.80;28.00;;;;;;5133746;27;45438;-71
2022/08/14 00:49:57;;;;;;;1.15;1.10;;;28.80;28.10;;;;;;5133763;27;45295;-71
2022/08/14 00:52:24;;;;;;;1.48;1.38;;;28.80;28.10;;;;;;5120496;27;45362;-70
2022/08/14 00:54:53;;;;;;;1.50;1.40;;;28.70;28.00;;;;;;5112616;27;45343;-70
2022/08/14 00:57:35;;;;;;;1.30;1.20;;;28.70;28.10;;;;;;5109230;27;46377;-70
2022/08/14 01:00:03;;;;;;;1.10;1.10;;;28.70;28.10;;;;;;5109683;27;45165;-70
2022/08/14 01:02:30;;;;;;;1.30;1.20;;;28.70;28.10;;;;;;5109645;27;45280;-70
2022/08/14 01:04:59;;;;;;;1.30;1.20;;;28.70;28.20;;;;;;5109737;27;45272;-71
2022/08/14 01:07:28;;;;;;;1.08;1.08;;;28.60;28.10;;;;;;5109323;27;46862;-71
2022/08/14 01:09:57;;;;;;;2.83;1.42;;;28.60;28.30;;;;;;5109390;27;45357;-70
2022/08/14 01:12:24;;;;;;;1.17;1.17;;;28.60;28.40;;;;;;5109662;27;45270;-70
2022/08/14 01:14:54;;;;;;;1.40;1.30;;;28.60;28.30;;;;;;5109805;27;45202;-71
2022/08/14 01:17:20;;;;;;;1.10;1.10;;;28.60;28.30;;;;;;5109287;27;45470;-71
2022/08/14 01:22:33;;;;;;;1.40;1.30;;;28.50;28.30;;;;;;5106774;27;45284;-71
2022/08/14 01:25:00;;;;;;;1.42;1.33;;;28.50;28.40;;;;;;5109530;27;45461;-70
2022/08/14 01:27:27;;;;;;;1.63;1.38;;;28.50;28.40;;;;;;5108967;27;46440;-70
2022/08/14 01:29:55;;;;;;;1.60;1.50;;;28.50;28.50;;;;;;5115787;27;45276;-71
2022/08/14 01:32:22;;;;;;;2.25;1.25;;;28.40;28.30;;;;;;5130072;27;45264;-70
2022/08/14 01:34:50;;;;;;;1.52;1.35;;;28.40;28.50;;;;;;5129951;27;45341;-70
2022/08/14 01:37:17;;;;;;;1.85;1.27;;;28.40;28.50;;;;;;5129399;27;46421;-70
2022/08/14 01:39:45;;;;;;;1.50;1.40;;;28.40;28.40;;;;;;5129644;27;45305;-71
2022/08/14 01:42:12;;;;;;;1.30;1.30;;;28.30;28.40;;;;;;5129856;27;45234;-70
2022/08/14 01:44:38;;;;;;;1.10;1.10;;;28.30;28.40;;;;;;5129841;27;45299;-70
2022/08/14 01:47:12;;;;;;;1.40;1.30;;;28.40;28.50;;;;;;5129574;27;46382;-70
2022/08/14 01:49:39;;;;;;;1.35;1.25;;;28.30;28.50;;;;;;5129618;27;45301;-70
2022/08/14 01:52:06;;;;;;;1.10;1.10;;;28.30;28.50;;;;;;5118835;27;45334;-71
2022/08/14 01:54:33;;;;;;;1.50;1.35;;;28.30;28.50;;;;;;5109108;27;45416;-72
2022/08/14 01:57:01;;;;;;;1.30;1.30;;;28.30;28.60;;;;;;5108662;27;45235;-71
2022/08/14 01:59:31;;;;;;;1.20;1.10;;;28.30;28.80;;;;;;5108648;27;45244;-71
2022/08/14 02:01:58;;;;;;;1.40;1.30;;;28.20;28.60;;;;;;5108907;27;45252;-72
2022/08/14 02:04:27;;;;;;;1.30;1.20;;;28.20;28.60;;;;;;5108931;27;45557;-72
2022/08/14 02:06:53;;;;;;;1.50;1.40;;;28.20;28.60;;;;;;5107613;27;45313;-71
2022/08/14 02:09:21;;;;;;;1.40;1.30;;;28.10;28.60;;;;;;5108328;27;45141;-71
2022/08/14 02:11:48;;;;;;;1.17;1.17;;;28.10;28.70;;;;;;5108653;27;45194;-70
2022/08/14 02:14:16;;;;;;;1.40;1.30;;;28.10;28.60;;;;;;5108713;27;45223;-70
2022/08/14 02:16:45;;;;;;;1.30;1.30;;;28.10;28.60;;;;;;5108245;27;47575;-71
2022/08/14 02:19:14;;;;;;;1.27;1.17;;;28.10;28.70;;;;;;5108115;27;45276;-70
2022/08/14 02:21:42;;;;;;;2.35;1.23;;;28.00;28.70;;;;;;5108084;27;45326;-70
2022/08/14 02:24:09;;;;;;;1.55;1.30;;;28.00;28.70;;;;;;5108449;27;45290;-70
2022/08/14 02:26:36;;;;;;;1.40;1.25;;;28.00;28.70;;;;;;5108178;27;45623;-70
2022/08/14 02:29:05;;;;;;;1.02;1.02;;;27.90;28.70;;;;;;5108240;27;45141;-70
2022/08/14 02:31:35;;;;;;;1.33;1.23;;;27.90;28.70;;;;;;5108493;27;45363;-70
2022/08/14 02:34:04;;;;;;;1.30;1.30;;;27.90;28.60;;;;;;5108489;27;45175;-71
2022/08/14 02:36:30;;;;;;;1.40;1.27;;;27.90;28.80;;;;;;5107897;27;45356;-71
2022/08/14 02:38:58;;;;;;;1.23;1.15;;;27.90;28.80;;;;;;5107979;27;45337;-71
2022/08/14 02:41:24;;;;;;;1.60;1.20;;;27.80;28.70;;;;;;5108176;27;45275;-71
2022/08/14 02:43:51;;;;;;;1.40;1.30;;;27.80;28.80;;;;;;5108308;27;45218;-71
2022/08/14 02:46:18;;;;;;;1.30;1.20;;;27.80;28.80;;;;;;5107845;27;45200;-70
2022/08/14 02:48:46;;;;;;;1.10;1.10;;;27.80;28.80;;;;;;5107862;27;45195;-70
2022/08/14 02:51:13;;;;;;;1.90;1.38;;;27.80;28.80;;;;;;5111142;27;45331;-70
2022/08/14 02:53:41;;;;;;;1.20;1.20;;;27.80;28.80;;;;;;5128793;27;45324;-70
2022/08/14 02:56:09;;;;;;;1.30;1.20;;;27.70;28.90;;;;;;5111252;27;46561;-71
2022/08/14 02:58:37;;;;;;;1.60;1.50;;;27.70;28.90;;;;;;5107758;27;45197;-70
2022/08/14 03:01:04;;;;;;;1.40;1.30;;;27.70;29.00;;;;;;5107910;27;45325;-70
2022/08/14 03:03:31;;;;;;;1.33;1.25;;;27.60;29.00;;;;;;5107892;27;45209;-70
2022/08/14 03:05:59;;;;;;;2.40;1.58;;;27.60;28.90;;;;;;5107572;27;45536;-71
2022/08/14 03:08:30;;;;;;;1.40;1.33;;;27.60;29.00;;;;;;5107169;27;45544;-71
2022/08/14 03:10:57;;;;;;;1.50;1.40;;;27.60;29.10;;;;;;5107308;27;45221;-71
2022/08/14 03:13:24;;;;;;;1.55;1.30;;;27.60;29.10;;;;;;5107835;27;45169;-70
2022/08/14 03:15:52;;;;;;;1.30;1.20;;;27.50;29.10;;;;;;5107398;27;46790;-70
2022/08/14 03:18:20;;;;;;;1.48;1.38;;;27.50;29.20;;;;;;5107012;27;45294;-70
2022/08/14 03:20:47;;;;;;;1.27;1.27;;;27.50;29.30;;;;;;5107698;27;45256;-71
2022/08/14 03:23:16;;;;;;;1.52;1.30;;;27.50;29.30;;;;;;5107626;27;45406;-70
2022/08/14 03:25:43;;;;;;;1.42;1.40;;;27.50;29.20;;;;;;5107432;27;45350;-70
2022/08/14 03:28:11;;;;;;;1.42;1.20;;;27.50;29.40;;;;;;5107489;27;45483;-70
2022/08/14 03:30:38;;;;;;;1.40;1.35;;;27.40;29.50;;;;;;5120752;27;45117;-71
2022/08/14 03:33:05;;;;;;;1.40;1.30;;;27.40;29.50;;;;;;5128415;27;45159;-71
2022/08/14 03:35:32;;;;;;;1.60;1.50;;;27.40;29.50;;;;;;5127854;27;46379;-70
2022/08/14 03:38:07;;;;;;;1.35;1.25;;;27.40;29.60;;;;;;5127871;27;45394;-71
2022/08/14 03:40:37;;;;;;;1.35;1.30;;;27.40;29.70;;;;;;5128030;27;45255;-70
2022/08/14 03:43:04;;;;;;;1.60;1.50;;;27.40;29.80;;;;;;5128388;27;45167;-70
2022/08/14 03:45:31;;;;;;;1.67;1.30;;;27.40;29.70;;;;;;5127633;27;46505;-71
2022/08/14 03:47:59;;;;;;;1.52;1.40;;;27.40;29.60;;;;;;5127930;27;45309;-71
2022/08/14 03:50:26;;;;;;;1.50;1.40;;;27.40;29.60;;;;;;5128204;27;45270;-71
2022/08/14 03:52:53;;;;;;;1.58;1.20;;;27.30;29.60;;;;;;5110423;27;45323;-70
2022/08/14 03:55:20;;;;;;;1.40;1.30;;;27.30;29.50;;;;;;5106957;27;46371;-70
2022/08/14 03:57:48;;;;;;;1.40;1.30;;;27.30;29.60;;;;;;5107035;27;45330;-71
2022/08/14 04:00:15;;;;;;;2.25;1.25;;;27.30;29.50;;;;;;5106736;27;45312;-71
2022/08/14 04:02:42;;;;;;;1.40;1.30;;;27.30;29.50;;;;;;5106797;27;45201;-70
2022/08/14 04:05:10;;;;;;;1.45;1.35;;;27.30;29.50;;;;;;5106838;27;46372;-70
2022/08/14 04:07:37;;;;;;;1.10;1.10;;;27.30;29.50;;;;;;5106910;27;45204;-71
2022/08/14 04:10:05;;;;;;;1.42;1.33;;;27.20;29.50;;;;;;5106950;27;45286;-71
2022/08/14 04:12:32;;;;;;;1.38;1.30;;;27.20;29.50;;;;;;5107108;27;45243;-71
2022/08/14 04:15:00;;;;;;;1.50;1.40;;;27.20;29.50;;;;;;5106713;27;45200;-70
2022/08/14 04:17:28;;;;;;;1.27;1.13;;;27.20;29.50;;;;;;5104242;27;45325;-71
2022/08/14 04:19:55;;;;;;;1.10;1.00;;;27.20;29.60;;;;;;5106925;27;45221;-71
2022/08/14 04:22:22;;;;;;;2.45;1.27;;;27.20;29.60;;;;;;5107050;27;45383;-70
2022/08/14 04:24:49;;;;;;;1.50;1.20;;;27.10;29.60;;;;;;5106608;27;45458;-70
2022/08/14 04:27:16;;;;;;;1.50;1.40;;;27.20;29.70;;;;;;5106891;27;45201;-70
2022/08/14 04:29:43;;;;;;;1.88;1.23;;;27.10;29.70;;;;;;5112128;27;45279;-70
2022/08/14 04:32:13;;;;;;;1.40;1.30;;;27.10;29.80;;;;;;5130490;27;45235;-70
2022/08/14 04:34:40;;;;;;;1.38;1.27;;;27.10;30.30;;;;;;5130808;27;45466;-70
2022/08/14 04:45:22;;;;;;;2.13;1.50;;;27.00;29.90;;;;;;5130774;27;45838;-70
2022/08/14 04:50:34;;;;;;;1.42;1.33;;;26.90;29.90;;;;;;5130971;27;45349;-71
2022/08/14 04:53:01;;;;;;;1.08;1.08;;;26.90;30.00;;;;;;5111945;27;45285;-71
2022/08/14 04:55:28;;;;;;;1.42;1.33;;;26.90;30.00;;;;;;5109573;27;46383;-70
2022/08/14 04:57:55;;;;;;;1.13;1.13;;;26.90;30.00;;;;;;5109743;27;45168;-70
2022/08/14 05:00:22;;;;;;;1.52;1.35;;;26.80;29.90;;;;;;5109998;27;45303;-70
2022/08/14 05:02:50;;;;;;;1.40;1.30;;;26.90;30.00;;;;;;5110062;27;45229;-70
2022/08/14 05:05:19;;;;;;;2.05;1.30;;;26.90;30.00;;;;;;5109474;27;47711;-70
2022/08/14 05:07:46;;;;;;;1.50;1.40;;;26.80;29.90;;;;;;5109636;27;45217;-71
2022/08/14 05:10:13;;;;;;;1.48;1.42;;;26.80;30.00;;;;;;5109627;27;45381;-70
2022/08/14 05:12:39;;;;;;;1.13;1.13;;;26.80;29.90;;;;;;5109368;27;45338;-70
2022/08/14 05:15:08;;;;;;;1.45;1.35;;;26.80;30.50;;;;;;5109331;27;46397;-70
2022/08/14 05:17:35;;;;;;;2.65;1.40;;;26.80;29.90;;;;;;5109531;27;45181;-70
2022/08/14 05:20:04;;;;;;;1.50;1.40;;;26.70;29.90;;;;;;5107560;27;45253;-71
2022/08/14 05:22:31;;;;;;;1.10;1.10;;;26.70;29.90;;;;;;5109560;27;45302;-71
2022/08/14 05:24:58;;;;;;;1.10;1.10;;;26.70;29.90;;;;;;5109101;27;45313;-70
2022/08/14 05:27:24;;;;;;;1.55;1.20;;;26.70;29.90;;;;;;5109389;27;45175;-71
2022/08/14 05:29:52;;;;;;;1.30;1.20;;;26.60;29.90;;;;;;5115914;27;45201;-70
2022/08/14 05:32:19;;;;;;;1.52;1.42;;;26.60;29.90;;;;;;5130065;27;45204;-71
2022/08/14 05:34:46;;;;;;;1.73;1.20;;;26.60;30.00;;;;;;5129737;27;45274;-70
2022/08/14 05:37:14;;;;;;;1.42;1.33;;;26.60;30.00;;;;;;5129486;27;45339;-71
2022/08/14 05:39:41;;;;;;;1.42;1.33;;;26.60;30.00;;;;;;5129802;27;45199;-70
2022/08/14 05:42:07;;;;;;;1.20;1.20;;;26.60;30.00;;;;;;5129679;27;45318;-70
2022/08/14 05:44:34;;;;;;;1.42;1.33;;;26.50;30.00;;;;;;5129567;27;46598;-71
2022/08/14 05:47:01;;;;;;;1.88;1.60;;;26.50;30.00;;;;;;5129538;27;45335;-70
2022/08/14 05:49:28;;;;;;;1.52;1.15;;;26.50;30.00;;;;;;5129858;27;45199;-71
2022/08/14 05:51:55;;;;;;;1.30;1.20;;;26.50;30.00;;;;;;5120638;27;45563;-71
2022/08/14 05:54:24;;;;;;;1.45;1.35;;;26.40;30.00;;;;;;5108637;27;45171;-71
2022/08/14 05:56:50;;;;;;;1.38;1.33;;;26.50;30.20;;;;;;5108367;27;45304;-70
2022/08/14 05:59:17;;;;;;;1.50;1.40;;;26.50;30.30;;;;;;5108511;27;45354;-70
2022/08/14 06:01:44;;;;;;;1.42;1.33;;;26.40;30.70;;;;;;5109030;27;45208;-70
2022/08/14 06:04:11;;;;;;;1.45;1.35;;;26.40;30.60;;;;;;5108385;27;45529;-70
2022/08/14 06:06:38;;;;;;;1.10;1.10;;;26.40;30.60;;;;;;5108683;27;45342;-71
2022/08/14 06:09:06;;;;;;;1.77;1.45;;;26.40;30.90;;;;;;5108849;27;45322;-71
2022/08/14 06:11:34;;;;;;;3.33;1.42;;;26.40;30.90;;;;;;5108919;27;45210;-70
2022/08/14 06:14:01;;;;;;;2.55;1.70;;;26.40;31.20;;;;;;5108459;27;46656;-70
2022/08/14 06:16:27;;;;;;;4.32;1.55;;;26.40;31.20;;;;;;5108436;27;45323;-71
2022/08/14 06:18:54;;;;;;;2.05;1.48;;;26.40;31.40;;;;;;5108663;27;45248;-70
2022/08/14 06:21:21;;;;;;;2.35;1.42;;;26.40;31.70;;;;;;5108627;27;45408;-70
2022/08/14 06:23:48;;;;;;;1.67;1.58;;;26.40;31.60;;;;;;5108277;27;46415;-70
2022/08/14 06:26:15;;;;;;;2.08;1.60;;;26.40;31.70;;;;;;5108204;27;45258;-71
2022/08/14 06:28:43;;;;;;;1.33;1.30;;;26.40;31.70;;;;;;5108491;27;45314;-70
2022/08/14 06:31:10;;;;;;;2.40;1.42;;;26.40;31.80;;;;;;5126207;27;45244;-70
2022/08/14 06:33:37;;;;;;;3.35;1.63;;;26.40;31.80;;;;;;5128737;27;46655;-70
2022/08/14 06:36:04;;;;;;;1.50;1.40;;;26.40;31.80;;;;;;5128188;27;45179;-70
2022/08/14 06:38:31;;;;;;;1.73;1.60;;;26.40;31.80;;;;;;5128871;27;45257;-71
2022/08/14 06:40:58;;;;;;;1.65;1.50;;;26.40;31.90;;;;;;5129039;27;45559;-71
2022/08/14 06:43:25;;;;;;;2.58;1.63;;;26.40;31.90;;;;;;5128237;27;45283;-70
2022/08/14 06:45:53;;;;;;;2.28;1.70;;;26.40;31.90;;;;;;5128550;27;45306;-70
2022/08/14 06:48:22;;;;;;;1.42;1.38;;;26.40;31.80;;;;;;5128733;27;45164;-70
2022/08/14 06:50:49;;;;;;;1.58;1.48;;;26.40;31.80;;;;;;5128973;27;45301;-70
2022/08/14 06:53:16;;;;;;;1.60;1.50;;;26.40;31.80;;;;;;5107033;27;45426;-70
2022/08/14 06:55:43;;;;;;;1.40;1.30;;;26.50;31.80;;;;;;5121136;27;45203;-70
2022/08/14 06:58:11;;;;;;;1.40;1.30;;;26.40;31.70;;;;;;5128602;27;45286;-71
2022/08/14 07:00:38;;;;;;;1.40;1.30;;;26.50;31.60;;;;;;5128822;27;45256;-71
2022/08/14 07:05:50;;;;;;;1.50;1.40;;;26.50;31.70;;;;;;5125677;27;45278;-71
2022/08/14 07:08:18;;;;;;;1.52;1.30;;;26.50;31.70;;;;;;5128554;27;45262;-71
2022/08/14 07:10:45;;;;;;;1.50;1.40;;;26.50;31.80;;;;;;5128602;27;45166;-72
2022/08/14 07:13:12;;;;;;;1.92;1.60;;;26.40;31.80;;;;;;5128230;27;46381;-71
2022/08/14 07:15:39;;;;;;;1.50;1.40;;;26.50;31.90;;;;;;5128244;27;45145;-71
2022/08/14 07:18:08;;;;;;;1.70;1.60;;;26.50;31.90;;;;;;5128374;27;45346;-70
2022/08/14 07:20:34;;;;;;;2.03;1.40;;;26.50;32.50;;;;;;5128356;27;45432;-71
2022/08/14 07:23:01;;;;;;;1.92;1.33;;;26.50;31.90;;;;;;5128060;27;46674;-71
2022/08/14 07:25:28;;;;;;;1.35;1.35;;;26.50;31.90;;;;;;5127875;27;45255;-71
2022/08/14 07:27:55;;;;;;;1.40;1.30;;;26.50;31.90;;;;;;5128091;27;45294;-71
2022/08/14 07:30:22;;;;;;;1.40;1.30;;;26.50;31.90;;;;;;5117147;27;45339;-71
2022/08/14 07:32:49;;;;;;;2.20;1.55;;;26.60;31.90;;;;;;5107279;27;46376;-71
2022/08/14 07:35:18;;;;;;;1.60;1.50;;;26.60;31.80;;;;;;5106858;27;45183;-71
2022/08/14 07:37:47;;;;;;;2.42;1.30;;;26.60;31.80;;;;;;5106837;27;45432;-70
2022/08/14 07:40:14;;;;;;;1.75;1.50;;;26.60;31.70;;;;;;5107506;27;45102;-71
2022/08/14 07:42:41;;;;;;;2.13;1.38;;;26.60;31.60;;;;;;5107202;27;46647;-72
2022/08/14 07:45:09;;;;;;;2.22;1.50;;;26.60;31.60;;;;;;5107087;27;45377;-72
2022/08/14 07:47:40;;;;;;;1.58;1.23;;;26.70;31.80;;;;;;5107412;27;45254;-71
2022/08/14 07:50:11;;;;;;;2.03;1.60;;;26.70;31.70;;;;;;5107530;27;45256;-71
2022/08/14 07:52:39;;;;;;;1.38;1.27;;;26.70;31.70;;;;;;5106937;27;46374;-71
2022/08/14 07:55:07;;;;;;;1.50;1.40;;;26.70;31.70;;;;;;5115169;27;45270;-71
2022/08/14 07:57:37;;;;;;;1.63;1.52;;;26.70;31.70;;;;;;5127934;27;45270;-71
2022/08/14 08:00:08;;;;;;;1.50;1.40;;;26.70;31.90;;;;;;5127972;27;45334;-72
2022/08/14 08:02:35;;;;;;;1.88;1.38;;;26.70;31.90;;;;;;5127483;27;46668;-71
2022/08/14 08:05:02;;;;;;;2.00;1.42;;;26.80;32.10;;;;;;5128929;27;45343;-72
2022/08/14 08:07:30;;;;;;;1.60;1.50;;;26.80;32.10;;;;;;5131471;27;45138;-71
2022/08/14 08:09:59;;;;;;;1.38;1.27;;;26.80;32.00;;;;;;5131559;27;45236;-72
2022/08/14 08:12:26;;;;;;;1.60;1.50;;;26.80;32.10;;;;;;5131296;27;46388;-71
2022/08/14 08:14:53;;;;;;;1.60;1.50;;;26.90;32.20;;;;;;5131110;27;45244;-72
2022/08/14 08:17:20;;;;;;;1.50;1.40;;;26.90;32.20;;;;;;5131467;27;45186;-71
2022/08/14 08:19:47;;;;;;;1.55;1.48;;;26.90;32.20;;;;;;5131491;27;45548;-71
2022/08/14 08:22:14;;;;;;;1.70;1.60;;;26.90;32.20;;;;;;5130980;27;46783;-71
2022/08/14 08:24:42;;;;;;;1.48;1.40;;;26.90;32.20;;;;;;5130751;27;45342;-71
2022/08/14 08:27:16;;;;;;;2.63;1.50;;;27.00;32.30;;;;;;5130629;27;45237;-71
2022/08/14 08:29:43;;;;;;;2.00;1.70;;;27.00;32.30;;;;;;5125162;27;45291;-71
2022/08/14 08:32:10;;;;;;;2.22;1.25;;;27.00;32.20;;;;;;5109896;27;45633;-71
2022/08/14 08:34:45;;;;;;;1.50;1.40;;;27.00;32.10;;;;;;5110100;27;45202;-71
2022/08/14 08:37:12;;;;;;;1.70;1.60;;;27.00;32.20;;;;;;5110005;27;45200;-71
2022/08/14 08:39:45;;;;;;;1.50;1.40;;;27.10;32.40;;;;;;5110613;27;45307;-72
2022/08/14 08:42:12;;;;;;;2.00;1.45;;;27.10;32.20;;;;;;5109953;27;46927;-72
2022/08/14 08:44:40;;;;;;;1.60;1.50;;;27.10;32.20;;;;;;5110085;27;45546;-71
2022/08/14 08:47:07;;;;;;;1.50;1.40;;;27.10;32.20;;;;;;5110243;27;45252;-71
2022/08/14 08:49:41;;;;;;;1.83;1.73;;;27.20;32.20;;;;;;5110455;27;45194;-71
2022/08/14 08:52:07;;;;;;;1.33;1.33;;;27.20;32.10;;;;;;5120821;27;46682;-71
2022/08/14 08:54:34;;;;;;;1.50;1.40;;;27.20;32.00;;;;;;5126728;27;45134;-71
2022/08/14 08:57:02;;;;;;;1.70;1.60;;;27.20;31.90;;;;;;5109946;27;45266;-71
2022/08/14 08:59:30;;;;;;;1.40;1.30;;;27.30;31.80;;;;;;5110223;27;45318;-72
2022/08/14 09:01:59;;;;;;;2.40;1.50;;;27.30;31.70;;;;;;5109636;27;45766;-71
2022/08/14 09:04:26;;;;;;;1.60;1.50;;;27.30;31.50;;;;;;5109788;27;45206;-72
2022/08/14 09:06:53;;;;;;;1.70;1.60;;;27.40;31.50;;;;;;5112359;27;45231;-72
2022/08/14 09:09:21;;;;;;;1.60;1.50;;;27.40;31.50;;;;;;5111059;27;45415;-72
2022/08/14 09:11:48;;;;;;;1.58;1.35;;;27.40;31.40;;;;;;5110155;27;46409;-71
2022/08/14 09:14:14;;;;;;;1.20;1.20;;;27.40;31.40;;;;;;5109053;27;45132;-72
2022/08/14 09:16:41;;;;;;;2.60;1.65;;;27.50;31.90;;;;;;5109628;27;45192;-72
2022/08/14 09:19:10;;;;;;;1.58;1.48;;;27.50;31.90;;;;;;5109888;27;45221;-72
2022/08/14 09:21:38;;;;;;;1.60;1.50;;;27.50;31.90;;;;;;5109304;27;46405;-72
2022/08/14 09:24:05;;;;;;;1.90;1.60;;;27.50;32.10;;;;;;5108758;27;45182;-71
2022/08/14 09:26:32;;;;;;;1.60;1.50;;;27.60;32.40;;;;;;5109743;27;45125;-71
2022/08/14 09:28:59;;;;;;;2.47;1.60;;;27.60;32.40;;;;;;5109715;27;45352;-73
2022/08/14 09:31:26;;;;;;;1.70;1.60;;;27.60;32.10;;;;;;5129440;27;45301;-72
2022/08/14 09:33:58;;;;;;;2.17;1.77;;;27.70;32.70;;;;;;5130292;27;45251;-72
2022/08/14 09:36:37;;;;;;;1.40;1.30;;;27.70;32.50;;;;;;5131582;27;45219;-72
2022/08/14 09:39:08;;;;;;;1.20;1.20;;;27.80;32.50;;;;;;5131761;27;45315;-72
2022/08/14 09:41:42;;;;;;;2.45;1.67;;;27.80;31.70;;;;;;5131288;27;46742;-72
2022/08/14 09:44:17;;;;;;;1.55;1.40;;;27.90;31.90;;;;;;5131669;27;45237;-72
2022/08/14 09:46:52;;;;;;;3.03;1.60;;;27.90;31.70;;;;;;5131701;27;45267;-72
2022/08/14 09:49:29;;;;;;;1.55;1.45;;;27.90;31.70;;;;;;5131315;27;45230;-72
2022/08/14 09:52:04;;;;;;;2.35;1.30;;;28.00;31.70;;;;;;5121994;27;45428;-72
2022/08/14 09:54:37;;;;;;;1.80;1.70;;;28.00;31.20;;;;;;5108871;27;45330;-72
2022/08/14 09:57:05;;;;;;;2.15;1.50;;;28.10;31.20;;;;;;5109023;27;45255;-71
2022/08/14 09:59:39;;;;;;;2.05;1.40;;;28.10;31.10;;;;;;5109511;27;45529;-72
2022/08/14 10:02:21;;;;;;;1.60;1.50;;;28.10;31.10;;;;;;5109865;27;46665;-72
2022/08/14 10:05:02;;;;;;;2.47;1.60;;;28.10;30.80;;;;;;5110336;27;45329;-72
2022/08/14 10:07:34;;;;;;;1.58;1.48;;;28.20;30.70;;;;;;5109929;27;45422;-72
2022/08/14 10:10:01;;;;;;;5.35;1.85;;;28.20;30.60;;;;;;5111590;27;45395;-71
2022/08/14 10:12:44;;;;;;;2.95;1.65;;;28.20;30.60;;;;;;5111444;27;46487;-72
2022/08/14 10:15:18;;;;;;;1.75;1.42;;;28.30;30.60;;;;;;5108223;27;45452;-72
2022/08/14 10:17:45;;;;;;;1.40;1.30;;;28.30;30.40;;;;;;5108777;27;45449;-72
2022/08/14 10:20:12;;;;;;;1.80;1.42;;;28.30;30.40;;;;;;5109194;27;45273;-73
2022/08/14 10:22:41;;;;;;;1.45;1.20;;;28.40;30.10;;;;;;5114095;27;47259;-71
2022/08/14 10:25:13;;;;;;;3.17;1.30;;;28.40;30.00;;;;;;5108504;27;45182;-72
2022/08/14 10:27:40;;;;;;;1.92;1.40;;;28.40;29.90;;;;;;5108470;27;45294;-72
2022/08/14 10:30:13;;;;;;;1.20;1.20;;;28.40;29.70;;;;;;5109028;27;45403;-71
2022/08/14 10:32:43;;;;;;;1.75;1.63;;;28.50;29.70;;;;;;5108359;27;45256;-72
2022/08/14 10:35:11;;;;;;;2.10;1.50;;;28.60;29.90;;;;;;5108226;27;45380;-71
2022/08/14 10:37:39;;;;;;;1.50;1.40;;;28.60;29.90;;;;;;5108311;27;45247;-72
2022/08/14 10:40:07;;;;;;;1.58;1.48;;;28.60;30.00;;;;;;5108457;27;45173;-72
2022/08/14 10:42:37;;;;;;;1.48;1.38;;;28.70;30.00;;;;;;5107912;27;45451;-73
2022/08/14 10:45:15;;;;;;;1.83;1.50;;;28.70;30.20;;;;;;5108305;27;45406;-72
2022/08/14 10:47:42;;;;;;;2.38;1.65;;;28.80;30.30;;;;;;5108226;27;45237;-72
2022/08/14 10:50:10;;;;;;;1.75;1.60;;;28.80;30.10;;;;;;5108425;27;45227;-72
2022/08/14 10:52:37;;;;;;;3.00;1.50;;;28.90;30.10;;;;;;5122726;27;46399;-72
2022/08/14 10:55:12;;;;;;;1.58;1.38;;;29.00;30.00;;;;;;5120336;27;45379;-71
2022/08/14 10:57:47;;;;;;;1.45;1.35;;;29.00;29.90;;;;;;5107990;27;45231;-72
2022/08/14 11:00:16;;;;;;;1.30;1.20;;;29.10;29.70;;;;;;5108105;27;45251;-71
2022/08/14 11:02:42;;;;;;;1.52;1.42;;;29.20;29.50;;;;;;5107805;27;46732;-72
2022/08/14 11:05:12;;;;;;;3.40;1.30;;;29.20;29.30;;;;;;5106818;27;45212;-72
2022/08/14 11:07:39;;;;;;;1.60;1.35;;;29.20;29.20;;;;;;5107434;27;45285;-71
2022/08/14 11:10:09;;;;;;;1.42;1.33;;;29.20;29.20;;;;;;5107943;27;45241;-72
2022/08/14 11:12:44;;;;;;;1.55;1.45;;;29.30;29.30;;;;;;5107464;27;46364;-71
2022/08/14 11:15:11;;;;;;;2.05;1.60;;;29.40;29.30;;;;;;5107171;27;45298;-72
2022/08/14 11:17:38;;;;;;;1.70;1.60;;;29.50;29.20;;;;;;5107637;27;45259;-71
2022/08/14 11:20:06;;;;;;;2.58;1.70;;;29.50;29.10;;;;;;5107999;27;45402;-71
2022/08/14 11:22:33;;;;;;;1.90;1.50;;;29.60;29.20;;;;;;5107415;27;47365;-72
2022/08/14 11:25:02;;;;;;;2.33;1.80;;;29.60;29.20;;;;;;5107290;27;45268;-73
2022/08/14 11:27:31;;;;;;;2.17;1.80;;;29.70;29.30;;;;;;5107792;27;45326;-72
2022/08/14 11:29:58;;;;;;;2.47;1.75;;;29.70;29.40;;;;;;5115181;27;45195;-71
2022/08/14 11:32:25;;;;;;;1.95;1.85;;;29.80;29.60;;;;;;5128006;27;46708;-71
2022/08/14 11:34:52;;;;;;;2.67;1.70;;;29.90;29.90;;;;;;5128054;27;45314;-72
2022/08/14 11:37:19;;;;;;;2.90;2.03;;;29.90;29.90;;;;;;5127820;27;45401;-72
2022/08/14 11:39:47;;;;;;;2.20;2.00;;;30.00;29.90;;;;;;5128084;27;45323;-72
2022/08/14 11:42:20;;;;;;;2.25;2.00;;;30.00;29.80;;;;;;5128042;27;47578;-72
2022/08/14 11:44:48;;;;;;;3.05;2.03;;;30.10;29.90;;;;;;5128031;27;45198;-72
2022/08/14 11:47:18;;;;;;;2.67;2.05;;;30.10;30.00;;;;;;5127879;27;45228;-72
2022/08/14 11:49:45;;;;;;;2.75;2.38;;;30.20;30.50;;;;;;5128065;27;45289;-72
2022/08/14 11:52:12;;;;;;;4.90;2.38;;;30.20;31.10;;;;;;5116356;27;45318;-71
2022/08/14 11:54:39;;;;;;;5.68;2.75;;;30.20;31.20;;;;;;5107143;27;45250;-72
2022/08/14 11:57:09;;;;;;;2.70;2.50;;;30.20;31.50;;;;;;5107093;27;45314;-73
2022/08/14 11:59:36;;;;;;;2.65;2.45;;;30.30;31.70;;;;;;5106756;27;45204;-73
2022/08/14 12:02:11;;;;;;;3.50;2.60;;;30.40;32.00;;;;;;5106952;27;46365;-73
2022/08/14 12:04:48;;;;;;;5.20;2.92;;;30.50;32.30;;;;;;5106923;27;45134;-72
2022/08/14 12:07:15;;;;;;;3.10;2.90;;;30.60;32.90;;;;;;5106617;27;45169;-72
2022/08/14 12:09:42;;;;;;;4.20;3.55;;;30.60;33.30;;;;;;5107262;27;45312;-72
2022/08/14 12:12:14;;;;;;;4.00;3.70;;;30.60;34.30;;;;;;5106877;27;45286;-72
2022/08/14 12:14:48;;;;;;;5.95;3.40;;;30.60;34.60;;;;;;5107047;27;45494;-72
2022/08/14 12:17:16;;;;;;;9.88;4.05;;;30.60;35.10;;;;;;5106798;27;45247;-73
2022/08/14 12:19:51;;;;;;;4.43;4.05;;;30.70;35.10;;;;;;5107073;27;45434;-73
2022/08/14 12:22:17;;;;;;;7.93;3.90;;;30.70;35.10;;;;;;5106927;27;46374;-72
2022/08/14 12:24:44;;;;;;;4.05;3.60;;;30.70;35.60;;;;;;5106460;27;45252;-73
2022/08/14 12:27:12;;;;;;;6.13;3.90;;;30.70;35.90;;;;;;5106857;27;45224;-72
2022/08/14 12:29:50;;;;;;;3.88;3.58;;;30.70;35.90;;;;;;5111949;27;45111;-72
2022/08/14 12:32:18;;;;;;;4.40;3.63;;;30.70;35.70;;;;;;5127257;27;47585;-72
2022/08/14 12:34:52;;;;;;;4.82;3.13;;;30.80;35.70;;;;;;5127327;27;45390;-72
2022/08/14 12:37:19;;;;;;;3.55;3.25;;;30.90;35.40;;;;;;5126632;27;45283;-73
2022/08/14 12:39:45;;;;;;;4.75;3.58;;;30.90;35.20;;;;;;5124816;27;45359;-72
2022/08/14 12:42:14;;;;;;;5.05;3.63;;;30.90;35.20;;;;;;5127318;27;46394;-73
2022/08/14 12:44:42;;;;;;;4.13;3.60;;;30.90;35.40;;;;;;5127303;27;45198;-73
2022/08/14 12:47:11;;;;;;;4.38;3.70;;;30.90;35.50;;;;;;5127129;27;45347;-73
2022/08/14 12:49:50;;;;;;;4.15;3.65;;;30.90;35.40;;;;;;5127634;27;45156;-73
2022/08/14 12:52:16;;;;;;;5.55;3.30;;;30.90;35.90;;;;;;5116647;27;47548;-72
2022/08/14 12:54:43;;;;;;;5.68;3.45;;;30.90;35.30;;;;;;5109301;27;45327;-73
2022/08/14 12:57:12;;;;;;;3.90;3.50;;;31.00;35.20;;;;;;5109937;27;45249;-73
2022/08/14 12:59:39;;;;;;;4.05;3.33;;;31.10;35.10;;;;;;5110458;27;45219;-73
2022/08/14 13:02:07;;;;;;;4.28;3.97;;;31.10;35.20;;;;;;5109816;27;45455;-73
2022/08/14 13:04:34;;;;;;;5.88;4.07;;;31.10;35.10;;;;;;5109802;27;45358;-73
2022/08/14 13:07:06;;;;;;;5.60;3.80;;;31.20;35.60;;;;;;5109537;27;45472;-72
2022/08/14 13:09:32;;;;;;;5.00;3.90;;;31.20;34.80;;;;;;5109366;27;45334;-73